Park City, Montana
Current Conditions -  °F | °C
As of 9:53 AM on Sunday 21 Dec 2014 (Local Time) from KBIL Reporting Station
Broken Clouds Broken Clouds  
Wind Chill: 32°   Ceiling: 11000
Heat Index: 41°   Visibility: 10mi
Dew Point: 26°   Wind: 17mph
Humidity: 55%   Direction: 240°WSW
Pressure: 29.42"   Gusts: NA
Location:  45.63°N, 108.92°W
Report Text: KBIL 211653Z 24015KT 10SM SCT050 BKN110 05/M03 A2942 RMK AO2 SLP978 VIRGA T00501033
Loading
Personal Weather Stations






























Interactive Weather Map New forecast layout! Learn more

10-Day Weather Forecast

Advertisements
Track Severe Weather on mobile